Time;durP1;ratioP1;P1;durP2;ratioP2;P2;SDS_P1;SDS_P2;PMS_P1;PMS_P2;Temp;Humidity;BMP_temperature;BMP_pressure;BME280_temperature;BME280_humidity;BME280_pressure;Samples;Min_cycle;Max_cycle;Signal;HPM_P1;HPM_P2
2023/08/21 00:04:03;;;;;;;3.00;1.02;;;;;;;23.49;48.76;102210.63;16112362;19;131143;-62
2023/08/21 00:09:25;;;;;;;2.92;0.95;;;;;;;23.48;49.14;102203.34;16111685;19;131948;-62
2023/08/21 00:14:47;;;;;;;2.83;1.05;;;;;;;23.48;49.14;102203.34;16111897;19;129893;-62
2023/08/21 00:20:09;;;;;;;2.33;0.88;;;;;;;23.47;48.79;102196.06;16108651;19;130483;-64
2023/08/21 00:25:31;;;;;;;1.98;0.85;;;;;;;23.46;49.19;102195.19;16109757;19;129607;-63
2023/08/21 00:31:03;;;;;;;3.78;1.00;;;;;;;23.46;49.10;102189.59;16105886;19;131408;-62
2023/08/21 00:36:25;;;;;;;2.80;0.80;;;;;;;23.45;49.18;102185.13;16111518;19;129685;-62
2023/08/21 00:41:47;;;;;;;3.95;0.90;;;;;;;23.46;48.94;102177.59;16108323;19;131572;-62
2023/08/21 00:47:09;;;;;;;3.88;1.10;;;;;;;23.45;49.14;102176.75;16106925;19;130221;-65
2023/08/21 00:52:32;;;;;;;3.58;1.10;;;;;;;23.44;48.96;102197.41;16107458;19;130074;-63
2023/08/21 00:57:55;;;;;;;3.20;1.00;;;;;;;23.44;48.78;102208.59;16109121;19;130285;-62
2023/08/21 01:03:17;;;;;;;3.75;1.13;;;;;;;23.45;49.14;102206.63;16105267;19;130691;-61
2023/08/21 01:08:53;;;;;;;2.70;0.90;;;;;;;23.44;48.94;102188.16;16106462;19;129945;-62
2023/08/21 01:14:33;;;;;;;2.17;1.10;;;;;;;23.42;49.07;102187.56;16108354;19;130412;-62
2023/08/21 01:19:56;;;;;;;1.92;0.77;;;;;;;23.42;48.75;102194.00;16107519;19;130387;-62
2023/08/21 01:25:18;;;;;;;2.95;0.95;;;;;;;23.43;49.08;102211.59;16117279;19;130730;-62
2023/08/21 01:30:40;;;;;;;2.15;0.80;;;;;;;23.44;49.04;102213.31;16124583;19;129543;-62
2023/08/21 01:36:04;;;;;;;3.20;0.70;;;;;;;23.45;49.11;102215.00;16122372;19;130942;-62
2023/08/21 01:41:26;;;;;;;2.08;0.95;;;;;;;23.44;48.95;102213.31;16127199;19;129820;-62
2023/08/21 01:46:48;;;;;;;2.45;0.80;;;;;;;23.43;49.00;102212.47;16127329;19;129679;-61
2023/08/21 01:52:10;;;;;;;2.50;0.73;;;;;;;23.43;48.85;102215.25;16128665;19;130331;-62
2023/08/21 01:57:32;;;;;;;2.08;0.75;;;;;;;23.43;49.12;102206.88;16128803;19;130961;-62
2023/08/21 02:02:54;;;;;;;2.15;0.88;;;;;;;23.44;49.07;102196.53;16141706;19;130417;-62
2023/08/21 02:08:17;;;;;;;2.10;0.80;;;;;;;23.43;49.16;102194.84;16198111;19;129448;-62
2023/08/21 02:13:39;;;;;;;2.47;0.90;;;;;;;23.43;48.95;102201.31;16195857;19;129053;-62
2023/08/21 02:19:01;;;;;;;1.42;0.70;;;;;;;23.42;49.04;102204.31;16191157;19;128699;-62
2023/08/21 02:24:22;;;;;;;1.95;0.85;;;;;;;23.41;48.85;102195.09;16203241;19;130411;-62
2023/08/21 02:29:44;;;;;;;1.80;0.70;;;;;;;23.41;49.30;102208.22;16203986;19;129430;-61
2023/08/21 02:35:08;;;;;;;1.42;0.70;;;;;;;23.42;48.99;102204.31;16202167;19;129907;-62
2023/08/21 02:40:30;;;;;;;1.10;0.70;;;;;;;23.39;49.36;102197.28;16205392;19;128908;-62
2023/08/21 02:45:52;;;;;;;2.40;0.90;;;;;;;23.39;49.01;102200.09;16202801;19;129829;-61
2023/08/21 02:51:13;;;;;;;2.22;0.80;;;;;;;23.40;49.38;102206.50;16202256;19;130139;-59
2023/08/21 02:56:35;;;;;;;1.95;0.68;;;;;;;23.38;49.36;102200.34;16201063;19;129424;-62
2023/08/21 03:01:57;;;;;;;2.47;0.88;;;;;;;23.37;49.27;102202.28;16201174;19;129619;-61
2023/08/21 03:07:20;;;;;;;1.55;0.60;;;;;;;23.37;49.02;102202.28;16201241;19;128616;-62
2023/08/21 03:12:42;;;;;;;1.08;0.60;;;;;;;23.37;49.06;102198.66;16196261;19;130482;-62
2023/08/21 03:18:04;;;;;;;2.03;0.77;;;;;;;23.35;49.38;102202.53;16192213;19;130089;-62
2023/08/21 03:23:25;;;;;;;1.23;0.63;;;;;;;23.34;49.24;102212.00;16191430;19;129035;-61
2023/08/21 03:28:47;;;;;;;1.52;0.70;;;;;;;23.34;49.11;102214.78;16159700;19;129035;-60
2023/08/21 03:34:09;;;;;;;0.98;0.60;;;;;;;23.34;49.20;102206.41;16128558;19;130491;-62
2023/08/21 03:39:31;;;;;;;2.22;1.02;;;;;;;23.33;49.31;102218.69;16128783;19;130277;-62
2023/08/21 03:44:55;;;;;;;0.90;0.60;;;;;;;23.32;49.48;102216.97;16128492;19;129816;-64
2023/08/21 03:50:17;;;;;;;2.03;0.73;;;;;;;23.32;49.57;102230.94;16120794;19;129633;-62
2023/08/21 03:55:39;;;;;;;1.23;0.68;;;;;;;23.32;49.55;102224.53;16126300;19;131620;-62
2023/08/21 04:01:01;;;;;;;2.38;0.75;;;;;;;23.32;49.16;102228.16;16128338;19;129681;-61
2023/08/21 04:06:23;;;;;;;1.65;0.70;;;;;;;23.32;49.55;102224.53;16114393;19;135446;-62
2023/08/21 04:11:45;;;;;;;0.80;0.52;;;;;;;23.31;49.15;102223.66;16112143;19;130104;-62
2023/08/21 04:17:08;;;;;;;1.73;0.50;;;;;;;23.30;49.59;102230.34;16113409;19;129567;-62
2023/08/21 04:22:30;;;;;;;0.93;0.60;;;;;;;23.31;49.44;102240.41;16112170;19;129975;-62
2023/08/21 04:27:52;;;;;;;1.02;0.57;;;;;;;23.30;49.56;102240.69;16111251;19;129981;-62
2023/08/21 04:33:14;;;;;;;2.58;0.90;;;;;;;23.30;49.45;102235.91;16108522;19;129847;-62
2023/08/21 04:38:36;;;;;;;0.70;0.50;;;;;;;23.29;49.44;102244.56;16109435;19;130825;-61
2023/08/21 04:44:00;;;;;;;1.65;0.80;;;;;;;23.28;49.45;102249.28;16109194;19;133770;-63
2023/08/21 04:49:23;;;;;;;0.57;0.40;;;;;;;23.28;49.73;102260.44;16108865;19;130622;-62
2023/08/21 04:54:45;;;;;;;3.08;0.85;;;;;;;23.28;49.77;102254.88;16110605;19;131479;-62
2023/08/21 05:00:09;;;;;;;1.33;0.60;;;;;;;23.28;49.60;102254.88;16120071;19;131631;-62
2023/08/21 05:05:31;;;;;;;1.30;0.65;;;;;;;23.26;49.48;102251.50;16128802;19;129585;-62
2023/08/21 05:10:57;;;;;;;1.02;0.52;;;;;;;23.27;49.44;102255.13;16126595;19;130583;-61
2023/08/21 05:16:19;;;;;;;1.60;0.60;;;;;;;23.24;49.48;102259.25;16129141;19;129728;-61
2023/08/21 05:21:41;;;;;;;0.90;0.50;;;;;;;23.25;49.65;102252.59;16125225;19;130283;-60
2023/08/21 05:27:04;;;;;;;1.20;0.50;;;;;;;23.24;49.54;102258.41;16124568;19;130424;-61
2023/08/21 05:32:26;;;;;;;0.65;0.40;;;;;;;23.23;49.40;102265.06;16123224;19;130460;-60
2023/08/21 05:37:51;;;;;;;3.70;0.68;;;;;;;23.21;49.70;102265.31;16123115;19;129916;-60
2023/08/21 05:43:16;;;;;;;2.25;1.00;;;;;;;23.23;49.53;102268.72;16120093;19;129612;-60
2023/08/21 05:48:38;;;;;;;1.52;0.65;;;;;;;23.21;49.76;102268.13;16119128;19;130089;-61
2023/08/21 05:54:00;;;;;;;1.25;0.80;;;;;;;23.22;49.27;102266.16;16122897;19;130925;-60
2023/08/21 05:59:31;;;;;;;3.67;1.20;;;;;;;23.23;49.55;102274.31;16119919;19;130004;-60
2023/08/21 06:04:53;;;;;;;2.15;1.25;;;;;;;23.19;49.48;102273.97;16123072;19;129845;-60
2023/08/21 06:10:15;;;;;;;4.68;1.40;;;;;;;23.21;49.37;102284.88;16117610;19;130481;-61
2023/08/21 06:15:37;;;;;;;3.40;1.30;;;;;;;23.20;48.95;102281.22;16114442;19;131588;-60
2023/08/21 06:20:59;;;;;;;1.88;1.02;;;;;;;23.21;49.27;102282.06;16122301;19;130004;-60
2023/08/21 06:26:21;;;;;;;3.78;1.35;;;;;;;23.22;49.29;102282.91;16122887;19;129897;-61
2023/08/21 06:31:43;;;;;;;5.25;1.60;;;;;;;23.21;49.39;102282.06;16119427;19;130871;-61
2023/08/21 06:37:05;;;;;;;7.85;2.00;;;;;;;23.24;49.24;102291.91;16118031;19;130996;-60
2023/08/21 06:42:27;;;;;;;3.53;1.27;;;;;;;23.24;48.96;102289.97;16119036;19;129874;-60
2023/08/21 06:47:50;;;;;;;4.57;1.92;;;;;;;23.24;49.03;102284.38;16114515;19;129715;-61
2023/08/21 06:53:12;;;;;;;2.20;1.10;;;;;;;23.26;48.93;102284.13;16113848;19;129708;-61
2023/08/21 06:58:34;;;;;;;5.53;1.60;;;;;;;23.26;48.98;102279.41;16121946;19;130021;-60
2023/08/21 07:03:56;;;;;;;5.55;1.63;;;;;;;23.26;49.03;102279.41;16118401;19;131230;-61
2023/08/21 07:09:18;;;;;;;3.35;1.25;;;;;;;23.28;49.10;102282.78;16115368;19;129751;-60
2023/08/21 07:14:40;;;;;;;4.30;1.48;;;;;;;23.30;48.87;102286.19;16117448;19;132409;-61
2023/08/21 07:20:03;;;;;;;3.95;1.60;;;;;;;23.32;49.02;102283.16;16112807;19;130674;-61
2023/08/21 07:25:26;;;;;;;5.00;1.52;;;;;;;23.32;48.88;102286.78;16111863;19;131663;-61
2023/08/21 07:30:57;;;;;;;5.22;1.73;;;;;;;23.33;48.71;102296.00;16109632;19;129842;-61
2023/08/21 07:36:19;;;;;;;4.85;1.80;;;;;;;23.33;48.88;102293.22;16115700;19;134071;-60
2023/08/21 07:41:41;;;;;;;3.63;1.45;;;;;;;23.34;48.86;102294.91;16112741;19;130299;-61
2023/08/21 07:47:03;;;;;;;4.47;1.50;;;;;;;23.35;49.19;102291.91;16113295;19;133124;-63
2023/08/21 07:52:25;;;;;;;4.18;1.40;;;;;;;23.36;48.69;102306.69;16111049;19;130202;-61
2023/08/21 07:57:47;;;;;;;5.93;1.23;;;;;;;23.37;48.81;102310.34;16112784;19;130425;-60
2023/08/21 08:03:10;;;;;;;3.80;1.42;;;;;;;23.38;48.83;102309.25;16113136;19;129464;-61
2023/08/21 08:08:35;;;;;;;4.45;1.40;;;;;;;23.38;49.13;102304.50;16116284;19;129315;-60
2023/08/21 08:13:57;;;;;;;5.88;1.70;;;;;;;23.38;48.97;102317.63;16112995;19;129552;-61
2023/08/21 08:19:19;;;;;;;6.68;1.20;;;;;;;23.40;48.79;102318.22;16112623;19;131387;-61
2023/08/21 08:24:41;;;;;;;3.72;1.60;;;;;;;23.40;49.11;102318.22;16114231;19;129770;-61
2023/08/21 08:30:04;;;;;;;6.47;1.40;;;;;;;23.41;48.83;102311.53;16111262;19;129613;-61
2023/08/21 08:35:26;;;;;;;5.05;1.50;;;;;;;23.42;48.96;102316.03;16111294;19;129791;-61
2023/08/21 08:40:50;;;;;;;3.72;1.25;;;;;;;23.42;48.86;102311.31;16111795;19;130640;-61
2023/08/21 08:46:12;;;;;;;3.93;1.53;;;;;;;23.43;49.26;102306.56;16109352;19;130306;-61
2023/08/21 08:51:37;;;;;;;4.90;1.73;;;;;;;23.44;48.96;102316.63;16110308;19;129248;-61
2023/08/21 08:56:59;;;;;;;6.47;1.40;;;;;;;23.44;48.98;102317.50;16110531;19;129781;-60
2023/08/21 09:02:21;;;;;;;3.33;1.38;;;;;;;23.45;48.81;102321.13;16112146;19;129359;-61
2023/08/21 09:07:43;;;;;;;4.53;1.65;;;;;;;23.45;48.71;102316.38;16109327;19;133123;-61
2023/08/21 09:13:13;;;;;;;7.35;1.55;;;;;;;23.46;48.82;102303.28;16108870;19;130036;-61
2023/08/21 09:18:35;;;;;;;2.28;1.10;;;;;;;23.45;49.14;102296.84;16105694;19;130059;-61
2023/08/21 09:24:04;;;;;;;5.07;1.42;;;;;;;23.46;48.94;102301.31;16107766;19;131387;-61
2023/08/21 09:29:26;;;;;;;4.25;1.45;;;;;;;23.47;48.98;102302.19;16109107;19;130343;-61
2023/08/21 09:34:48;;;;;;;3.22;1.30;;;;;;;23.47;48.82;102293.81;16105825;19;129455;-61
2023/08/21 09:40:11;;;;;;;5.53;1.50;;;;;;;23.47;49.09;102291.84;16106009;19;129725;-61
2023/08/21 09:45:33;;;;;;;2.33;1.00;;;;;;;23.48;48.49;102292.72;16111413;19;131253;-61
2023/08/21 09:50:56;;;;;;;2.97;1.35;;;;;;;23.47;48.79;102297.44;16125045;19;130091;-61
2023/08/21 09:56:19;;;;;;;4.35;1.33;;;;;;;23.47;48.64;102291.84;16122773;19;129471;-60
2023/08/21 10:01:41;;;;;;;3.88;1.27;;;;;;;23.47;48.65;102297.44;16123042;19;130860;-61
2023/08/21 10:07:07;;;;;;;2.28;1.10;;;;;;;23.49;48.40;102283.25;16122236;19;134298;-61
2023/08/21 10:12:29;;;;;;;3.47;1.00;;;;;;;23.49;48.25;102283.25;16121146;19;129663;-61
2023/08/21 10:17:51;;;;;;;4.18;1.20;;;;;;;23.48;48.44;102285.16;16118176;19;130176;-61
2023/08/21 10:23:29;;;;;;;3.50;1.05;;;;;;;23.50;48.41;102288.56;16118508;19;130366;-61
2023/08/21 10:28:57;;;;;;;4.55;1.33;;;;;;;23.51;48.09;102283.81;16118558;19;129904;-60
2023/08/21 10:34:20;;;;;;;2.78;1.00;;;;;;;23.50;48.27;102290.53;16118443;19;132277;-62
2023/08/21 10:39:56;;;;;;;2.72;1.30;;;;;;;23.53;48.10;102294.75;16119899;19;131635;-61
2023/08/21 10:45:18;;;;;;;3.22;1.20;;;;;;;23.51;47.99;102292.19;16116763;19;130497;-59
2023/08/21 10:50:40;;;;;;;4.50;1.50;;;;;;;23.52;48.31;102288.31;16117615;19;129610;-61
2023/08/21 10:56:03;;;;;;;2.90;1.02;;;;;;;23.52;48.58;102285.53;16119423;19;129079;-61
2023/08/21 11:01:25;;;;;;;4.47;1.20;;;;;;;23.51;48.40;102281.91;16119113;19;130835;-61
2023/08/21 11:06:51;;;;;;;2.25;1.10;;;;;;;23.55;48.23;102287.00;16117811;19;129564;-66
2023/08/21 11:12:15;;;;;;;4.13;1.20;;;;;;;23.61;48.42;102283.22;16122966;19;129405;-65
2023/08/21 11:17:37;;;;;;;2.93;0.90;;;;;;;23.68;48.32;102285.88;16120723;19;130716;-71
2023/08/21 11:23:06;;;;;;;2.22;0.93;;;;;;;23.77;48.51;102279.66;16120702;19;130288;-70
2023/08/21 11:28:30;;;;;;;2.72;1.15;;;;;;;23.82;48.21;102271.34;16120795;19;128954;-64
2023/08/21 11:33:52;;;;;;;3.67;1.08;;;;;;;23.91;47.98;102280.19;16118007;19;130698;-64
2023/08/21 11:39:14;;;;;;;2.28;1.00;;;;;;;23.95;48.34;102278.59;16115347;19;131276;-63
2023/08/21 11:44:50;;;;;;;3.90;1.00;;;;;;;23.99;47.98;102276.16;16117720;19;129754;-65
2023/08/21 11:50:15;;;;;;;3.15;1.10;;;;;;;24.02;48.31;102269.22;16119250;19;130541;-71
2023/08/21 11:55:38;;;;;;;2.37;1.03;;;;;;;24.01;47.98;102260.00;16118480;19;129632;-71
2023/08/21 12:01:04;;;;;;;4.13;1.10;;;;;;;24.03;48.24;102259.72;16119680;19;129820;-63
2023/08/21 12:06:28;;;;;;;2.40;0.80;;;;;;;24.05;48.11;102264.00;16116879;19;130645;-67
2023/08/21 12:11:50;;;;;;;3.53;0.90;;;;;;;24.07;47.88;102269.31;16115712;19;129797;-64
2023/08/21 12:17:12;;;;;;;2.97;1.00;;;;;;;24.08;48.39;102248.66;16116389;19;129496;-67
2023/08/21 12:22:34;;;;;;;2.30;0.88;;;;;;;24.09;48.21;102261.53;16118065;19;129464;-65
2023/08/21 12:27:56;;;;;;;2.80;0.85;;;;;;;24.11;48.04;102257.38;16117441;19;129791;-65
2023/08/21 12:33:30;;;;;;;2.85;0.80;;;;;;;24.11;48.21;102240.59;16118119;19;131140;-65
2023/08/21 12:38:52;;;;;;;1.92;0.90;;;;;;;24.13;48.25;102248.72;16117923;19;129993;-65
2023/08/21 12:44:15;;;;;;;4.30;0.80;;;;;;;24.13;48.16;102254.31;16115760;19;131454;-65
2023/08/21 12:49:36;;;;;;;2.40;0.93;;;;;;;24.13;47.90;102240.34;16114598;19;129590;-65
2023/08/21 12:55:01;;;;;;;2.72;1.02;;;;;;;24.13;47.99;102243.13;16112776;19;131827;-65
2023/08/21 13:00:23;;;;;;;2.20;0.75;;;;;;;24.14;48.03;102256.00;16112305;19;130615;-65
2023/08/21 13:05:45;;;;;;;3.10;1.00;;;;;;;24.14;48.34;102233.66;16110852;19;129334;-65
2023/08/21 13:11:07;;;;;;;2.08;0.90;;;;;;;24.15;48.05;102246.53;16114285;19;130450;-64
2023/08/21 13:16:29;;;;;;;2.20;1.10;;;;;;;24.11;47.87;102239.75;16110988;19;131087;-65
2023/08/21 13:21:51;;;;;;;2.47;0.82;;;;;;;24.10;48.17;102238.06;16128230;19;129804;-64
2023/08/21 13:27:13;;;;;;;3.70;1.27;;;;;;;24.12;47.91;102238.66;16127756;19;129535;-65
2023/08/21 13:32:35;;;;;;;3.97;0.93;;;;;;;24.12;47.40;102233.06;16125493;19;131219;-64
2023/08/21 13:37:57;;;;;;;2.40;1.00;;;;;;;24.12;47.65;102227.47;16125634;19;130206;-65
2023/08/21 13:43:19;;;;;;;3.35;1.00;;;;;;;24.14;47.88;102232.81;16126760;19;129551;-65
2023/08/21 13:48:43;;;;;;;2.28;0.80;;;;;;;24.14;47.86;102221.63;16127438;19;129120;-64
2023/08/21 13:54:05;;;;;;;2.85;1.00;;;;;;;24.14;47.55;102228.06;16126121;19;130316;-64
2023/08/21 13:59:27;;;;;;;4.18;1.15;;;;;;;24.13;47.38;102215.16;16126803;19;130373;-64
2023/08/21 14:04:49;;;;;;;2.08;1.10;;;;;;;24.12;47.46;102219.09;16129025;19;130008;-65
2023/08/21 14:10:14;;;;;;;3.38;0.98;;;;;;;24.12;47.71;102203.16;16123509;19;129802;-65
2023/08/21 14:15:36;;;;;;;3.53;1.03;;;;;;;24.12;47.81;102197.56;16125154;19;130101;-64
2023/08/21 14:20:58;;;;;;;2.05;0.93;;;;;;;24.14;47.74;102193.66;16126716;19;131198;-65
2023/08/21 14:26:20;;;;;;;2.17;0.90;;;;;;;24.15;47.58;102193.41;16121941;19;129558;-65
2023/08/21 14:31:42;;;;;;;1.38;0.80;;;;;;;24.14;47.62;102180.53;16122831;19;130270;-64
2023/08/21 14:37:05;;;;;;;3.03;1.00;;;;;;;24.15;47.13;102167.41;16121993;19;129132;-64
2023/08/21 14:42:27;;;;;;;2.83;0.80;;;;;;;24.15;47.60;102167.41;16120395;19;129703;-65
2023/08/21 14:47:48;;;;;;;1.23;0.70;;;;;;;24.15;47.75;102157.06;16120027;19;131584;-64
2023/08/21 14:53:10;;;;;;;8.77;0.80;;;;;;;24.15;47.40;102159.03;16118217;19;129576;-67
2023/08/21 14:58:32;;;;;;;2.50;0.85;;;;;;;24.15;47.67;102151.47;16117899;19;130451;-65
2023/08/21 15:03:54;;;;;;;3.13;0.93;;;;;;;24.15;47.61;102145.88;16119719;19;129617;-67
2023/08/21 15:09:16;;;;;;;1.35;0.80;;;;;;;24.15;47.07;102148.66;16112196;19;129567;-63
2023/08/21 15:14:38;;;;;;;2.30;0.70;;;;;;;24.15;47.35;102140.28;16120789;19;132782;-64
2023/08/21 15:20:00;;;;;;;1.98;0.90;;;;;;;24.15;47.59;102129.09;16116043;19;130404;-67
2023/08/21 15:25:22;;;;;;;2.38;0.85;;;;;;;24.16;47.50;102130.78;16118934;19;131598;-64
2023/08/21 15:30:45;;;;;;;1.80;0.80;;;;;;;24.17;47.32;102126.91;16118169;19;129743;-64
2023/08/21 15:36:07;;;;;;;3.53;0.80;;;;;;;24.17;47.63;102126.91;16117865;19;129926;-65
2023/08/21 15:41:29;;;;;;;4.40;0.80;;;;;;;24.16;47.61;102119.59;16115380;19;129952;-63
2023/08/21 15:46:51;;;;;;;1.38;0.60;;;;;;;24.16;47.35;102114.03;16120333;19;129513;-64
2023/08/21 15:52:26;;;;;;;1.40;0.67;;;;;;;24.16;47.08;102104.81;16129111;19;130836;-66
2023/08/21 15:57:48;;;;;;;2.78;0.93;;;;;;;24.16;46.96;102108.44;16122165;19;129842;-64
2023/08/21 16:03:10;;;;;;;1.65;0.70;;;;;;;24.16;47.04;102102.84;16117632;19;129649;-65
2023/08/21 16:08:33;;;;;;;2.22;0.68;;;;;;;24.15;47.15;102089.97;16119718;19;129983;-62
2023/08/21 16:13:57;;;;;;;1.65;0.70;;;;;;;24.15;46.72;102087.16;16116129;19;130500;-64
2023/08/21 16:19:19;;;;;;;1.65;0.80;;;;;;;24.16;46.97;102080.47;16122460;19;130842;-64
2023/08/21 16:24:41;;;;;;;4.50;0.85;;;;;;;24.18;46.90;102083.84;16125854;19;131338;-64
2023/08/21 16:30:04;;;;;;;4.47;1.08;;;;;;;24.18;47.02;102072.69;16123118;19;129788;-64
2023/08/21 16:35:26;;;;;;;3.42;1.10;;;;;;;24.20;47.03;102073.28;16167906;19;129759;-64
2023/08/21 16:40:49;;;;;;;3.67;1.10;;;;;;;24.22;46.93;102078.59;16193193;19;130327;-67
2023/08/21 16:46:11;;;;;;;3.30;1.20;;;;;;;24.23;47.06;102071.91;16194981;19;130302;-66
2023/08/21 16:51:33;;;;;;;4.38;1.13;;;;;;;24.24;46.95;102071.69;16180930;19;129127;-67
2023/08/21 16:56:55;;;;;;;3.15;1.00;;;;;;;24.25;47.15;102073.34;16195673;19;129463;-71
2023/08/21 17:02:20;;;;;;;4.82;1.10;;;;;;;24.29;46.32;102076.50;16162466;19;129386;-58
2023/08/21 17:07:44;;;;;;;6.07;1.15;;;;;;;24.34;45.84;102075.75;16154141;19;130349;-61
2023/08/21 17:13:06;;;;;;;3.85;0.93;;;;;;;24.35;45.99;102066.25;16164654;19;130148;-62
2023/08/21 17:18:28;;;;;;;3.95;0.82;;;;;;;24.36;46.08;102062.34;16184718;19;129374;-71
2023/08/21 17:23:50;;;;;;;3.58;0.90;;;;;;;24.39;46.52;102070.19;16191201;19;130338;-63
2023/08/21 17:29:12;;;;;;;3.42;1.08;;;;;;;24.39;46.71;102067.41;16151325;19;129370;-65
2023/08/21 17:34:34;;;;;;;3.10;0.90;;;;;;;24.40;46.76;102060.69;16123606;19;132016;-64
2023/08/21 17:39:59;;;;;;;9.45;1.10;;;;;;;24.39;46.84;102059.88;16125404;19;131454;-65
2023/08/21 17:45:21;;;;;;;5.57;1.10;;;;;;;24.40;47.18;102063.50;16121786;19;130112;-61
2023/08/21 17:50:44;;;;;;;3.38;1.27;;;;;;;24.36;47.13;102054.78;16122980;19;129810;-61
2023/08/21 17:56:06;;;;;;;3.75;1.20;;;;;;;24.33;47.22;102057.25;16124728;19;131516;-61
2023/08/21 18:01:29;;;;;;;2.85;1.00;;;;;;;24.31;47.03;102046.31;16120518;19;130518;-63
2023/08/21 18:06:51;;;;;;;6.28;1.00;;;;;;;24.29;46.84;102059.72;16115666;19;129655;-62
2023/08/21 18:12:13;;;;;;;5.00;1.50;;;;;;;24.32;46.85;102066.75;16108252;19;130084;-62
2023/08/21 18:17:35;;;;;;;5.43;1.45;;;;;;;24.33;46.70;102062.84;16101554;19;130528;-64
2023/08/21 18:22:58;;;;;;;3.35;0.85;;;;;;;24.33;46.61;102054.47;16111380;19;130356;-63
2023/08/21 18:28:22;;;;;;;3.38;1.00;;;;;;;24.34;46.38;102050.56;16117951;19;130482;-63
2023/08/21 18:33:45;;;;;;;6.78;1.38;;;;;;;24.34;46.66;102058.97;16118283;19;130680;-57
2023/08/21 18:39:07;;;;;;;5.43;1.20;;;;;;;24.33;46.81;102060.88;16109778;19;131745;-72
2023/08/21 18:44:29;;;;;;;6.53;1.10;;;;;;;24.30;46.59;102057.78;16115386;19;130585;-71
2023/08/21 18:49:51;;;;;;;5.90;1.10;;;;;;;24.26;46.65;102061.06;16123665;19;130453;-71
2023/08/21 18:55:13;;;;;;;5.15;1.35;;;;;;;24.22;47.03;102065.47;16122564;19;130623;-72
2023/08/21 19:00:36;;;;;;;2.95;1.02;;;;;;;24.21;47.00;102065.72;16118918;19;130411;-63
2023/08/21 19:05:59;;;;;;;5.25;1.02;;;;;;;24.19;47.03;102082.75;16112975;19;130847;-62
2023/08/21 19:11:24;;;;;;;2.35;0.90;;;;;;;24.18;47.27;102080.22;16123052;19;129830;-62
2023/08/21 19:16:48;;;;;;;3.87;0.93;;;;;;;24.18;47.71;102083.84;16121835;19;130900;-61
2023/08/21 19:22:11;;;;;;;3.38;0.80;;;;;;;24.19;47.97;102084.69;16117624;19;130362;-63
2023/08/21 19:27:33;;;;;;;3.00;0.90;;;;;;;24.19;47.98;102093.06;16117169;19;129391;-71
2023/08/21 19:32:55;;;;;;;1.80;0.80;;;;;;;24.20;48.24;102109.63;16120065;19;130173;-66
2023/08/21 19:38:19;;;;;;;1.23;0.85;;;;;;;24.20;48.44;102104.03;16115995;19;130298;-61
2023/08/21 19:43:42;;;;;;;4.43;1.13;;;;;;;24.21;48.64;102110.44;16124463;19;130256;-71
2023/08/21 19:49:04;;;;;;;2.45;0.90;;;;;;;24.20;48.40;102104.03;16120845;19;131023;-67
2023/08/21 19:54:26;;;;;;;4.65;0.95;;;;;;;24.21;48.83;102122.50;16119934;19;130580;-60
2023/08/21 19:59:49;;;;;;;3.72;1.20;;;;;;;24.20;49.27;102120.81;16121931;19;130659;-59
2023/08/21 20:05:11;;;;;;;2.42;0.90;;;;;;;24.19;48.94;102110.72;16115644;19;130919;-58
2023/08/21 20:10:33;;;;;;;1.23;0.68;;;;;;;24.21;49.04;102113.25;16115198;19;130612;-59
2023/08/21 20:15:55;;;;;;;2.42;0.98;;;;;;;24.19;49.09;102116.31;16111243;19;130066;-63
2023/08/21 20:21:19;;;;;;;2.80;1.00;;;;;;;24.20;49.41;102115.22;16115183;19;131358;-59
2023/08/21 20:26:41;;;;;;;4.45;1.00;;;;;;;24.19;48.83;102113.50;16115329;19;131220;-57
2023/08/21 20:32:03;;;;;;;2.60;1.00;;;;;;;24.20;49.36;102111.56;16114128;19;129157;-58
2023/08/21 20:37:25;;;;;;;4.35;1.00;;;;;;;24.18;49.48;102117.41;16109906;19;129992;-64
2023/08/21 20:42:47;;;;;;;3.63;1.27;;;;;;;24.18;49.23;102117.41;16109850;19;130235;-64
2023/08/21 20:48:09;;;;;;;3.15;0.95;;;;;;;24.16;49.27;102118.78;16108454;19;131022;-63
2023/08/21 20:53:32;;;;;;;4.70;1.10;;;;;;;24.14;48.99;102093.84;16097527;19;130492;-64
2023/08/21 20:58:54;;;;;;;2.35;0.98;;;;;;;24.13;49.02;102092.16;16106444;19;131061;-64
2023/08/21 21:04:16;;;;;;;3.60;0.85;;;;;;;24.11;49.69;102094.38;16103953;19;132066;-62
2023/08/21 21:09:38;;;;;;;1.65;0.70;;;;;;;24.09;49.74;102077.84;16108355;19;131105;-63
2023/08/21 21:15:00;;;;;;;3.80;1.20;;;;;;;24.08;49.63;102092.09;16110249;19;129717;-63
2023/08/21 21:20:23;;;;;;;2.20;1.00;;;;;;;24.06;49.31;102091.50;16109399;19;129557;-62
2023/08/21 21:25:45;;;;;;;2.78;1.00;;;;;;;24.05;49.44;102092.59;16103821;19;130411;-63
2023/08/21 21:31:07;;;;;;;2.47;0.93;;;;;;;24.02;49.86;102095.91;16104278;19;129397;-63
2023/08/21 21:36:29;;;;;;;2.38;0.90;;;;;;;24.01;49.47;102094.19;16103513;19;130458;-63
2023/08/21 21:41:51;;;;;;;4.25;1.05;;;;;;;24.01;49.62;102091.41;16113211;19;129418;-62
2023/08/21 21:47:13;;;;;;;2.67;1.10;;;;;;;24.00;49.58;102092.53;16123103;19;130265;-63
2023/08/21 21:52:35;;;;;;;2.15;1.10;;;;;;;23.97;49.91;102097.53;16120907;19;129325;-63
2023/08/21 21:57:57;;;;;;;2.30;0.80;;;;;;;23.97;49.90;102099.47;16121309;19;130567;-63
2023/08/21 22:03:19;;;;;;;3.92;1.00;;;;;;;23.96;49.84;102097.75;16124545;19;129911;-62
2023/08/21 22:08:42;;;;;;;3.97;1.00;;;;;;;23.94;50.00;102100.81;16121461;19;129520;-63
2023/08/21 22:14:05;;;;;;;1.45;0.70;;;;;;;23.92;49.63;102091.84;16118288;19;134559;-63
2023/08/21 22:19:26;;;;;;;2.10;0.70;;;;;;;23.92;50.12;102100.22;16118910;19;130844;-63
2023/08/21 22:24:48;;;;;;;1.50;0.93;;;;;;;23.92;50.14;102085.41;16121664;19;130305;-62
2023/08/21 22:30:11;;;;;;;1.98;0.90;;;;;;;23.93;49.89;102082.34;16116699;19;130716;-62
2023/08/21 22:35:34;;;;;;;2.25;0.90;;;;;;;23.90;50.32;102074.47;16117592;19;134035;-63
2023/08/21 22:40:55;;;;;;;4.75;1.00;;;;;;;23.89;50.19;102086.75;16118751;19;129424;-63
2023/08/21 22:46:17;;;;;;;1.95;0.80;;;;;;;23.87;50.20;102088.97;16117360;19;129499;-63
2023/08/21 22:51:40;;;;;;;2.55;0.80;;;;;;;23.87;50.20;102088.97;16118136;19;131668;-63
2023/08/21 22:57:02;;;;;;;1.58;0.77;;;;;;;23.86;50.31;102087.28;16121476;19;129729;-62
2023/08/21 23:02:24;;;;;;;1.40;0.82;;;;;;;23.85;50.45;102095.91;16120764;19;130740;-62
2023/08/21 23:07:46;;;;;;;1.85;0.73;;;;;;;23.85;50.36;102090.31;16118920;19;129195;-62
2023/08/21 23:13:08;;;;;;;1.75;0.70;;;;;;;23.85;50.37;102082.78;16120672;19;130964;-63
2023/08/21 23:18:30;;;;;;;1.25;0.88;;;;;;;23.84;50.29;102080.22;16118150;19;129832;-62
2023/08/21 23:23:52;;;;;;;1.50;0.82;;;;;;;23.83;50.05;102079.41;16111804;19;129444;-62
2023/08/21 23:29:14;;;;;;;1.85;0.80;;;;;;;23.81;50.25;102073.22;16114639;19;130507;-63
2023/08/21 23:34:36;;;;;;;1.90;0.88;;;;;;;23.80;50.35;102065.94;16117039;19;131209;-62
2023/08/21 23:39:58;;;;;;;1.95;0.90;;;;;;;23.80;50.34;102060.34;16116896;19;130714;-63
2023/08/21 23:45:20;;;;;;;2.55;0.70;;;;;;;23.79;50.71;102051.13;16114958;19;129611;-63
2023/08/21 23:50:42;;;;;;;1.77;0.80;;;;;;;23.78;50.48;102045.78;16114865;19;130339;-63
2023/08/21 23:56:04;;;;;;;1.63;0.75;;;;;;;23.78;50.57;102054.16;16114282;19;130744;-63
